Lochgelly, United Kingdom
Current Conditions -  °F | °C
As of 6:20 PM on Thursday 27 Nov 2014 (Local Time) from EGPH Reporting Station
Overcast Overcast  
Wind Chill: 46°   Ceiling: 1700
Heat Index: 46°   Visibility: 4mi
Dew Point: 46°   Wind: 3mph
Humidity: 100%   Direction: 50°NE
Pressure: 29.56"   Gusts: NA
Location:  56.13°N, 3.31°W
Report Text: EGPH 271820Z 05003KT 6000 FEW003 BKN017 OVC028 08/08 Q1001
Loading
Personal Weather Stations






























Interactive Weather Map New forecast layout! Learn more

10-Day Weather Forecast

Advertisements
Track Severe Weather on mobile